createdAt,value
2023-03-06T00:00:47.124Z,2.40
2023-03-06T00:03:14.484Z,2.40
2023-03-06T00:05:42.411Z,2.50
2023-03-06T00:08:09.674Z,2.50
2023-03-06T00:10:37.146Z,2.40
2023-03-06T00:13:07.590Z,2.40
2023-03-06T00:15:35.160Z,2.40
2023-03-06T00:18:06.486Z,2.40
2023-03-06T00:20:34.972Z,2.40
2023-03-06T00:23:02.929Z,2.40
2023-03-06T00:25:30.449Z,2.40
2023-03-06T00:27:57.948Z,2.40
2023-03-06T00:30:25.747Z,2.40
2023-03-06T00:32:53.774Z,2.40
2023-03-06T00:35:21.599Z,2.40
2023-03-06T00:37:49.020Z,2.40
2023-03-06T00:40:19.416Z,2.40
2023-03-06T00:42:47.133Z,2.40
2023-03-06T00:45:15.508Z,2.40
2023-03-06T00:47:43.295Z,2.40
2023-03-06T00:50:11.232Z,2.40
2023-03-06T00:52:38.727Z,2.40
2023-03-06T00:55:06.704Z,2.40
2023-03-06T00:57:34.107Z,2.40
2023-03-06T01:00:01.909Z,2.30
2023-03-06T01:02:29.287Z,2.40
2023-03-06T01:04:56.729Z,2.40
2023-03-06T01:07:24.083Z,2.40
2023-03-06T01:09:51.387Z,2.40
2023-03-06T01:12:18.752Z,2.40
2023-03-06T01:14:46.012Z,2.30
2023-03-06T01:17:13.476Z,2.30
2023-03-06T01:19:42.238Z,2.40
2023-03-06T01:22:09.616Z,2.40
2023-03-06T01:24:38.286Z,2.40
2023-03-06T01:27:05.646Z,2.40
2023-03-06T01:29:33.020Z,2.50
2023-03-06T01:32:00.311Z,2.40
2023-03-06T01:34:27.712Z,2.40
2023-03-06T01:36:54.976Z,2.40
2023-03-06T01:39:22.327Z,2.40
2023-03-06T01:41:49.899Z,2.40
2023-03-06T01:44:17.195Z,2.40
2023-03-06T01:46:45.724Z,2.40
2023-03-06T01:49:21.711Z,2.40
2023-03-06T01:52:00.944Z,2.40
2023-03-06T01:54:51.022Z,2.40
2023-03-06T01:57:19.753Z,2.30
2023-03-06T01:59:51.674Z,2.30
2023-03-06T02:02:18.863Z,2.30
2023-03-06T02:04:46.582Z,2.30
2023-03-06T02:07:15.662Z,2.30
2023-03-06T02:09:42.979Z,2.30
2023-03-06T02:12:14.581Z,2.20
2023-03-06T02:14:42.762Z,2.20
2023-03-06T02:17:13.121Z,2.20
2023-03-06T02:19:58.470Z,2.20
2023-03-06T02:22:43.602Z,2.20
2023-03-06T02:25:35.817Z,2.20
2023-03-06T02:28:05.047Z,2.20
2023-03-06T02:30:32.766Z,2.30
2023-03-06T02:33:01.658Z,2.30
2023-03-06T02:35:31.694Z,2.30
2023-03-06T02:38:06.120Z,2.30
2023-03-06T02:40:33.554Z,2.30
2023-03-06T02:43:01.717Z,2.20
2023-03-06T02:45:37.224Z,2.30
2023-03-06T02:48:04.900Z,2.20
2023-03-06T02:50:32.531Z,2.20
2023-03-06T02:53:01.718Z,2.20
2023-03-06T02:55:31.496Z,2.10
2023-03-06T02:57:59.108Z,2.10
2023-03-06T03:00:27.105Z,2.10
2023-03-06T03:02:54.645Z,2.10
2023-03-06T03:05:22.306Z,2.20
2023-03-06T03:07:56.669Z,2.20
2023-03-06T03:10:24.228Z,2.20
2023-03-06T03:12:51.841Z,2.20
2023-03-06T03:15:20.468Z,2.30
2023-03-06T03:17:47.947Z,2.30
2023-03-06T03:20:18.356Z,2.20
2023-03-06T03:22:53.682Z,2.20
2023-03-06T03:25:25.062Z,2.20
2023-03-06T03:27:55.260Z,2.20
2023-03-06T03:30:23.179Z,2.20
2023-03-06T03:32:50.762Z,2.20
2023-03-06T03:35:18.258Z,2.20
2023-03-06T03:37:46.715Z,2.20
2023-03-06T03:40:14.663Z,2.20
2023-03-06T03:42:41.999Z,2.20
2023-03-06T03:45:10.942Z,2.20
2023-03-06T03:47:38.338Z,2.10
2023-03-06T03:50:07.040Z,2.20
2023-03-06T03:52:35.305Z,2.10
2023-03-06T03:55:03.295Z,2.10
2023-03-06T03:57:30.668Z,2.00
2023-03-06T03:59:59.038Z,2.00
2023-03-06T04:02:44.861Z,2.00
2023-03-06T04:05:21.841Z,2.00
2023-03-06T04:07:49.388Z,2.00
2023-03-06T04:10:17.206Z,2.00
2023-03-06T04:12:44.774Z,2.10
2023-03-06T04:15:12.906Z,2.10
2023-03-06T04:17:40.617Z,2.10
2023-03-06T04:20:12.445Z,2.00
2023-03-06T04:22:40.136Z,2.10
2023-03-06T04:25:08.430Z,2.10
2023-03-06T04:27:36.397Z,2.00
2023-03-06T04:30:05.536Z,2.00
2023-03-06T04:32:34.232Z,2.00
2023-03-06T04:35:02.362Z,2.00
2023-03-06T04:37:35.123Z,2.00
2023-03-06T04:40:02.644Z,2.00
2023-03-06T04:42:30.293Z,2.00
2023-03-06T04:44:57.990Z,2.00
2023-03-06T04:47:25.240Z,2.00
2023-03-06T04:49:52.501Z,2.00
2023-03-06T04:52:19.867Z,2.00
2023-03-06T04:54:47.164Z,2.00
2023-03-06T04:57:14.520Z,2.00
2023-03-06T04:59:41.754Z,2.00
2023-03-06T05:02:09.013Z,2.00
2023-03-06T05:04:36.268Z,2.00
2023-03-06T05:07:03.531Z,1.90
2023-03-06T05:09:30.755Z,1.90
2023-03-06T05:11:58.031Z,1.90
2023-03-06T05:14:25.324Z,2.00
2023-03-06T05:16:52.618Z,1.90
2023-03-06T05:19:19.833Z,2.00
2023-03-06T05:21:47.454Z,1.90
2023-03-06T05:24:15.003Z,1.90
2023-03-06T05:26:42.238Z,1.90
2023-03-06T05:29:09.558Z,1.90
2023-03-06T05:31:36.741Z,1.90
2023-03-06T05:34:04.031Z,2.00
2023-03-06T05:36:31.259Z,1.90
2023-03-06T05:38:58.593Z,2.00
2023-03-06T05:41:25.806Z,1.90
2023-03-06T05:43:53.490Z,2.00
2023-03-06T05:46:20.748Z,2.00
2023-03-06T05:48:47.985Z,1.90
2023-03-06T05:51:15.411Z,2.00
2023-03-06T05:53:42.649Z,2.00
2023-03-06T05:56:10.086Z,2.00
2023-03-06T05:58:38.178Z,2.00
2023-03-06T06:01:17.239Z,2.10
2023-03-06T06:03:45.482Z,2.10
2023-03-06T06:06:15.125Z,2.00
2023-03-06T06:08:42.980Z,2.00
2023-03-06T06:11:12.221Z,2.00
2023-03-06T06:13:40.326Z,2.00
2023-03-06T06:16:13.146Z,2.10
2023-03-06T06:18:41.452Z,2.10
2023-03-06T06:21:10.898Z,2.10
2023-03-06T06:23:38.132Z,2.20
2023-03-06T06:26:07.480Z,2.20
2023-03-06T06:28:35.155Z,2.20
2023-03-06T06:31:12.364Z,2.20
2023-03-06T06:33:40.652Z,2.20
2023-03-06T06:36:16.441Z,2.20
2023-03-06T06:38:44.091Z,2.30
2023-03-06T06:41:36.125Z,2.30
2023-03-06T06:43:59.214Z,2.30
2023-03-06T06:47:14.372Z,2.40
2023-03-06T06:49:15.504Z,2.50
2023-03-06T06:51:42.729Z,2.50
2023-03-06T06:54:11.242Z,2.60
2023-03-06T06:56:38.447Z,2.70
2023-03-06T06:59:16.193Z,2.60
2023-03-06T07:01:45.126Z,2.70
2023-03-06T07:04:16.044Z,2.80
2023-03-06T07:06:43.276Z,2.80
2023-03-06T07:09:10.664Z,2.80
2023-03-06T07:11:38.873Z,2.80
2023-03-06T07:14:06.229Z,2.90
2023-03-06T07:16:33.434Z,3.00
2023-03-06T07:19:00.775Z,3.00
2023-03-06T07:21:27.945Z,3.00
2023-03-06T07:23:57.536Z,3.00
2023-03-06T07:26:28.382Z,3.10
2023-03-06T07:28:55.683Z,3.10
2023-03-06T07:31:26.268Z,3.20
2023-03-06T07:33:54.740Z,3.20
2023-03-06T07:36:23.617Z,3.30
2023-03-06T07:38:50.974Z,3.40
2023-03-06T07:41:21.862Z,3.30
2023-03-06T07:43:50.090Z,3.30
2023-03-06T07:46:18.018Z,3.20
2023-03-06T07:48:45.528Z,3.20
2023-03-06T07:51:16.065Z,3.20
2023-03-06T07:53:43.336Z,3.30
2023-03-06T07:56:11.973Z,3.50
2023-03-06T07:58:41.778Z,3.50
2023-03-06T08:01:14.827Z,3.50
2023-03-06T08:03:42.401Z,3.40
2023-03-06T08:06:14.903Z,3.40
2023-03-06T08:08:44.681Z,3.60
2023-03-06T08:11:13.865Z,3.60
2023-03-06T08:13:41.689Z,3.80
2023-03-06T08:16:09.311Z,3.90
2023-03-06T08:18:38.184Z,4.00
2023-03-06T08:21:16.626Z,4.00
2023-03-06T08:23:44.387Z,4.10
2023-03-06T08:26:17.261Z,4.20
2023-03-06T08:28:45.190Z,4.30
2023-03-06T08:31:19.895Z,4.30
2023-03-06T08:33:48.028Z,4.30
2023-03-06T08:36:15.341Z,4.20
2023-03-06T08:38:42.615Z,4.20
2023-03-06T08:41:09.952Z,4.30
2023-03-06T08:43:37.378Z,4.40
2023-03-06T08:46:04.934Z,4.60
2023-03-06T08:48:32.165Z,4.70
2023-03-06T08:50:59.899Z,4.90
2023-03-06T08:53:41.784Z,4.90
2023-03-06T08:56:34.062Z,4.90
2023-03-06T08:59:03.920Z,5.00
2023-03-06T09:01:34.718Z,5.10
2023-03-06T09:04:04.601Z,5.30
2023-03-06T09:06:34.224Z,5.20
2023-03-06T09:09:01.605Z,5.20
2023-03-06T09:11:29.296Z,5.40
2023-03-06T09:13:57.107Z,5.00
2023-03-06T09:16:24.893Z,5.20
2023-03-06T09:18:54.036Z,5.30
2023-03-06T09:21:25.195Z,5.10
2023-03-06T09:23:52.789Z,4.90
2023-03-06T09:26:20.551Z,4.80
2023-03-06T09:28:47.802Z,5.00
2023-03-06T09:31:20.047Z,5.20
2023-03-06T09:33:48.300Z,5.20
2023-03-06T09:36:22.762Z,5.40
2023-03-06T09:38:50.568Z,5.30
2023-03-06T09:41:26.898Z,5.10
2023-03-06T09:44:04.847Z,5.00
2023-03-06T09:46:41.387Z,5.00
2023-03-06T09:49:18.140Z,4.80
2023-03-06T09:51:51.151Z,4.90
2023-03-06T09:54:23.254Z,4.90
2023-03-06T09:56:50.953Z,5.00
2023-03-06T09:59:25.457Z,5.20
2023-03-06T10:02:02.928Z,5.20
2023-03-06T10:04:36.709Z,5.50
2023-03-06T10:07:35.013Z,5.60
2023-03-06T10:10:06.391Z,5.70
2023-03-06T10:12:42.876Z,5.50
2023-03-06T10:15:26.631Z,5.30
2023-03-06T10:17:57.380Z,5.10
2023-03-06T10:20:29.223Z,5.00
2023-03-06T10:23:25.192Z,4.60
2023-03-06T10:26:11.414Z,4.40
2023-03-06T10:28:49.050Z,4.40
2023-03-06T10:31:35.693Z,4.60
2023-03-06T10:34:23.053Z,4.70
2023-03-06T10:36:51.780Z,4.80
2023-03-06T10:39:22.508Z,4.90
2023-03-06T10:41:50.889Z,5.00
2023-03-06T10:44:21.304Z,5.10
2023-03-06T10:46:51.937Z,5.20
2023-03-06T10:49:40.947Z,5.30
2023-03-06T10:52:14.343Z,5.50
2023-03-06T10:54:45.132Z,5.40
2023-03-06T10:57:32.793Z,5.40
2023-03-06T11:00:05.426Z,5.00
2023-03-06T11:02:39.696Z,5.10
2023-03-06T11:05:18.725Z,5.10
2023-03-06T11:07:59.232Z,5.10
2023-03-06T11:10:27.971Z,5.20
2023-03-06T11:13:19.210Z,5.20
2023-03-06T11:16:15.433Z,5.10
2023-03-06T11:18:54.456Z,5.20
2023-03-06T11:21:31.485Z,5.00
2023-03-06T11:24:20.174Z,5.00
2023-03-06T11:26:58.461Z,4.90
2023-03-06T11:29:29.641Z,4.90
2023-03-06T11:32:05.597Z,5.00
2023-03-06T11:34:59.431Z,5.00
2023-03-06T11:37:32.715Z,4.90
2023-03-06T11:40:05.864Z,4.70
2023-03-06T11:42:42.038Z,4.80
2023-03-06T11:45:32.070Z,4.70
2023-03-06T11:48:14.316Z,4.50
2023-03-06T11:50:52.718Z,4.60
2023-03-06T11:53:23.292Z,4.60
2023-03-06T11:56:22.936Z,4.50
2023-03-06T11:59:14.841Z,4.70
2023-03-06T12:01:47.898Z,5.00
2023-03-06T12:04:45.984Z,5.20
2023-03-06T12:07:26.161Z,5.30
2023-03-06T12:12:48.990Z,5.40
2023-03-06T12:15:58.036Z,5.40
2023-03-06T12:18:53.099Z,5.30
2023-03-06T12:21:26.275Z,5.40
2023-03-06T12:24:17.834Z,5.50
2023-03-06T12:27:29.635Z,5.40
2023-03-06T12:30:18.301Z,5.50
2023-03-06T12:33:00.301Z,6.00
2023-03-06T12:35:58.535Z,6.20
2023-03-06T12:38:31.689Z,6.40
2023-03-06T12:41:13.331Z,6.30
2023-03-06T12:43:40.537Z,6.50
2023-03-06T12:46:18.043Z,6.40
2023-03-06T12:49:01.884Z,6.10
2023-03-06T12:51:30.220Z,5.90
2023-03-06T12:54:00.239Z,5.80
2023-03-06T12:56:28.726Z,5.80
2023-03-06T12:58:57.939Z,5.80
2023-03-06T13:02:04.263Z,5.80
2023-03-06T13:04:53.415Z,5.60
2023-03-06T13:07:47.456Z,5.50
2023-03-06T13:10:28.104Z,5.60
2023-03-06T13:13:05.091Z,5.70
2023-03-06T13:15:41.276Z,5.60
2023-03-06T13:18:24.990Z,5.70
2023-03-06T13:20:54.044Z,5.60
2023-03-06T13:23:32.537Z,5.50
2023-03-06T13:26:02.243Z,5.60
2023-03-06T13:28:50.181Z,5.40
2023-03-06T13:31:32.528Z,5.50
2023-03-06T13:34:04.617Z,5.60
2023-03-06T13:36:33.270Z,5.70
2023-03-06T13:39:09.147Z,5.90
2023-03-06T13:41:58.188Z,6.00
2023-03-06T13:44:25.408Z,6.00
2023-03-06T13:47:28.345Z,5.90
2023-03-06T13:49:56.157Z,5.80
2023-03-06T13:53:01.468Z,6.00
2023-03-06T13:55:58.779Z,5.90
2023-03-06T13:58:31.847Z,5.90
2023-03-06T14:01:01.799Z,5.80
2023-03-06T14:04:05.077Z,5.80
2023-03-06T14:06:35.413Z,5.90
2023-03-06T14:09:06.878Z,6.00
2023-03-06T14:11:35.590Z,6.00
2023-03-06T14:14:03.565Z,5.90
2023-03-06T14:16:49.269Z,5.80
2023-03-06T14:19:19.296Z,5.80
2023-03-06T14:21:57.595Z,5.90
2023-03-06T14:24:35.226Z,6.10
2023-03-06T14:27:02.622Z,6.30
2023-03-06T14:29:30.785Z,6.40
2023-03-06T14:32:00.248Z,6.30
2023-03-06T14:34:30.280Z,5.90
2023-03-06T14:37:02.649Z,5.80
2023-03-06T14:39:40.324Z,5.70
2023-03-06T14:42:28.703Z,5.60
2023-03-06T14:45:17.299Z,5.60
2023-03-06T14:47:51.058Z,5.70
2023-03-06T14:50:23.398Z,5.80
2023-03-06T14:52:58.002Z,5.50
2023-03-06T14:55:28.131Z,5.50
2023-03-06T14:58:16.776Z,5.50
2023-03-06T15:00:46.066Z,5.40
2023-03-06T15:03:20.051Z,5.40
2023-03-06T15:05:48.828Z,5.50
2023-03-06T15:08:24.216Z,5.50
2023-03-06T15:11:00.043Z,5.80
2023-03-06T15:13:29.414Z,6.10
2023-03-06T15:16:02.195Z,5.90
2023-03-06T15:18:36.327Z,5.80
2023-03-06T15:21:18.260Z,5.70
2023-03-06T15:23:48.148Z,5.50
2023-03-06T15:26:31.819Z,5.40
2023-03-06T15:29:11.178Z,5.40
2023-03-06T15:31:43.778Z,5.40
2023-03-06T15:34:11.000Z,5.30
2023-03-06T15:36:39.507Z,5.30
2023-03-06T15:39:36.184Z,5.20
2023-03-06T15:42:15.136Z,5.00
2023-03-06T15:44:42.497Z,4.90
2023-03-06T15:47:11.991Z,4.70
2023-03-06T15:49:40.385Z,4.80
2023-03-06T15:52:08.127Z,4.80
2023-03-06T15:54:35.881Z,4.70
2023-03-06T15:57:06.378Z,4.50
2023-03-06T15:59:41.593Z,4.40
2023-03-06T16:02:18.024Z,4.40
2023-03-06T16:04:46.031Z,4.50
2023-03-06T16:07:13.885Z,4.40
2023-03-06T16:09:42.044Z,4.30
2023-03-06T16:12:20.879Z,4.30
2023-03-06T16:14:49.218Z,4.20
2023-03-06T16:17:17.125Z,4.20
2023-03-06T16:19:44.575Z,4.20
2023-03-06T16:22:12.300Z,4.10
2023-03-06T16:24:39.557Z,4.10
2023-03-06T16:27:07.117Z,4.00
2023-03-06T16:29:35.286Z,3.90
2023-03-06T16:32:02.769Z,3.80
2023-03-06T16:34:30.124Z,3.80
2023-03-06T16:36:58.206Z,3.70
2023-03-06T16:39:25.666Z,3.60
2023-03-06T16:41:52.970Z,3.70
2023-03-06T16:44:20.594Z,3.70
2023-03-06T16:46:50.193Z,3.70
2023-03-06T16:49:27.041Z,3.70
2023-03-06T16:51:54.972Z,3.60
2023-03-06T16:54:26.077Z,3.60
2023-03-06T16:56:53.338Z,3.50
2023-03-06T16:59:20.573Z,3.50
2023-03-06T17:01:47.958Z,3.40
2023-03-06T17:04:15.303Z,3.40
2023-03-06T17:06:43.240Z,3.40
2023-03-06T17:09:14.488Z,3.40
2023-03-06T17:11:44.927Z,3.30
2023-03-06T17:14:12.269Z,3.30
2023-03-06T17:16:40.568Z,3.30
2023-03-06T17:19:08.155Z,3.30
2023-03-06T17:21:38.460Z,3.20
2023-03-06T17:24:06.731Z,3.30
2023-03-06T17:26:36.545Z,3.30
2023-03-06T17:29:06.917Z,3.30
2023-03-06T17:31:34.325Z,3.30
2023-03-06T17:34:01.578Z,3.30
2023-03-06T17:36:30.714Z,3.30
2023-03-06T17:38:59.800Z,3.30
2023-03-06T17:41:27.520Z,3.30
2023-03-06T17:43:58.491Z,3.30
2023-03-06T17:46:26.111Z,3.30
2023-03-06T17:48:54.477Z,3.40
2023-03-06T17:51:21.672Z,3.40
2023-03-06T17:53:49.473Z,3.40
2023-03-06T17:56:16.826Z,3.30
2023-03-06T17:58:44.234Z,3.30
2023-03-06T18:01:12.943Z,3.40
2023-03-06T18:03:43.409Z,3.40
2023-03-06T18:06:11.154Z,3.50
2023-03-06T18:08:38.608Z,3.50
2023-03-06T18:11:07.959Z,3.50
2023-03-06T18:13:37.046Z,3.40
2023-03-06T18:16:05.739Z,3.50
2023-03-06T18:18:33.205Z,3.50
2023-03-06T18:21:09.164Z,3.50
2023-03-06T18:23:37.358Z,3.50
2023-03-06T18:26:14.191Z,3.50
2023-03-06T18:28:44.668Z,3.50
2023-03-06T18:31:26.746Z,3.50
2023-03-06T18:33:56.755Z,3.40
2023-03-06T18:36:26.409Z,3.40
2023-03-06T18:38:53.726Z,3.40
2023-03-06T18:41:22.047Z,3.40
2023-03-06T18:43:54.506Z,3.30
2023-03-06T18:46:22.198Z,3.30
2023-03-06T18:48:49.511Z,3.30
2023-03-06T18:51:17.182Z,3.40
2023-03-06T18:53:44.480Z,3.30
2023-03-06T18:56:20.369Z,3.30
2023-03-06T18:58:48.400Z,3.30
2023-03-06T19:01:15.900Z,3.20
2023-03-06T19:03:43.455Z,3.20
2023-03-06T19:06:14.343Z,3.20
2023-03-06T19:08:41.772Z,3.10
2023-03-06T19:11:14.889Z,3.10
2023-03-06T19:13:42.785Z,3.10
2023-03-06T19:16:18.082Z,3.10
2023-03-06T19:18:45.366Z,3.10
2023-03-06T19:21:15.352Z,3.10
2023-03-06T19:23:43.591Z,3.10
2023-03-06T19:26:11.503Z,3.10
2023-03-06T19:28:41.542Z,3.10
2023-03-06T19:31:13.272Z,3.20
2023-03-06T19:33:42.023Z,3.10
2023-03-06T19:36:12.219Z,3.00
2023-03-06T19:38:39.761Z,3.00
2023-03-06T19:41:11.922Z,3.00
2023-03-06T19:43:40.833Z,3.00
2023-03-06T19:46:13.156Z,3.00
2023-03-06T19:48:41.409Z,3.00
2023-03-06T19:51:09.969Z,3.00
2023-03-06T19:53:38.914Z,3.00
2023-03-06T19:56:08.132Z,3.00
2023-03-06T19:58:35.497Z,3.10
2023-03-06T20:01:07.948Z,3.10
2023-03-06T20:03:35.253Z,3.00
2023-03-06T20:06:06.272Z,3.00
2023-03-06T20:08:33.582Z,3.00
2023-03-06T20:11:00.965Z,3.00
2023-03-06T20:13:29.479Z,2.90
2023-03-06T20:15:58.349Z,2.90
2023-03-06T20:18:26.187Z,3.00
2023-03-06T20:21:01.416Z,2.90
2023-03-06T20:23:28.722Z,2.90
2023-03-06T20:25:56.034Z,3.00
2023-03-06T20:28:23.680Z,2.90
2023-03-06T20:30:51.048Z,3.00
2023-03-06T20:33:19.692Z,3.00
2023-03-06T20:35:47.058Z,2.90
2023-03-06T20:38:14.824Z,2.90
2023-03-06T20:40:43.464Z,3.00
2023-03-06T20:43:10.930Z,2.90
2023-03-06T20:45:38.215Z,3.00
2023-03-06T20:48:05.598Z,2.90
2023-03-06T20:50:32.822Z,2.90
2023-03-06T20:53:00.019Z,2.90
2023-03-06T20:55:27.264Z,2.90
2023-03-06T20:57:55.001Z,2.90
2023-03-06T21:00:24.562Z,2.90
2023-03-06T21:02:52.203Z,2.90
2023-03-06T21:05:19.535Z,3.00
2023-03-06T21:07:46.914Z,3.00
2023-03-06T21:10:15.120Z,2.90
2023-03-06T21:12:42.423Z,3.00
2023-03-06T21:15:10.048Z,3.00
2023-03-06T21:17:37.259Z,3.00
2023-03-06T21:20:05.910Z,3.00
2023-03-06T21:22:33.197Z,3.00
2023-03-06T21:25:00.443Z,2.90
2023-03-06T21:27:27.687Z,2.90
2023-03-06T21:29:54.911Z,2.90
2023-03-06T21:32:23.192Z,2.90
2023-03-06T21:34:50.605Z,2.80
2023-03-06T21:37:17.839Z,2.80
2023-03-06T21:39:45.053Z,2.80
2023-03-06T21:42:12.260Z,2.80
2023-03-06T21:44:41.776Z,2.80
2023-03-06T21:47:11.106Z,2.80
2023-03-06T21:49:39.219Z,2.80
2023-03-06T21:52:06.896Z,2.90
2023-03-06T21:54:34.186Z,2.90
2023-03-06T21:57:01.412Z,2.80
2023-03-06T21:59:28.689Z,2.90
2023-03-06T22:01:55.965Z,2.90
2023-03-06T22:04:23.302Z,2.90
2023-03-06T22:06:50.567Z,2.80
2023-03-06T22:09:19.127Z,2.80
2023-03-06T22:11:46.330Z,2.90
2023-03-06T22:14:14.834Z,2.80
2023-03-06T22:16:42.241Z,2.90
2023-03-06T22:19:09.484Z,2.80
2023-03-06T22:21:36.736Z,2.80
2023-03-06T22:24:04.671Z,2.80
2023-03-06T22:26:31.917Z,2.80
2023-03-06T22:28:59.125Z,2.80
2023-03-06T22:31:28.749Z,2.80
2023-03-06T22:33:58.463Z,2.90
2023-03-06T22:36:26.853Z,2.80
2023-03-06T22:38:56.426Z,2.80
2023-03-06T22:41:23.906Z,2.80
2023-03-06T22:43:51.221Z,2.80
2023-03-06T22:46:18.873Z,2.80
2023-03-06T22:48:46.301Z,2.80
2023-03-06T22:51:16.470Z,2.80
2023-03-06T22:53:44.749Z,2.70
2023-03-06T22:56:15.285Z,2.80
2023-03-06T22:58:44.775Z,2.80
2023-03-06T23:01:23.279Z,2.70
2023-03-06T23:03:52.463Z,2.80
2023-03-06T23:06:31.898Z,2.80
2023-03-06T23:09:05.957Z,2.70
2023-03-06T23:11:52.341Z,2.70
2023-03-06T23:14:38.444Z,2.70
2023-03-06T23:17:24.395Z,2.70
2023-03-06T23:20:12.021Z,2.70
2023-03-06T23:22:58.091Z,2.80
2023-03-06T23:25:44.012Z,2.80
2023-03-06T23:28:12.315Z,2.70
2023-03-06T23:30:39.837Z,2.70
2023-03-06T23:33:07.486Z,2.70
2023-03-06T23:35:36.085Z,2.70
2023-03-06T23:38:03.500Z,2.70
2023-03-06T23:40:33.654Z,2.70
2023-03-06T23:43:01.491Z,2.70
2023-03-06T23:45:28.739Z,2.70
2023-03-06T23:47:56.403Z,2.70
2023-03-06T23:50:24.727Z,2.70
2023-03-06T23:52:55.673Z,2.70
2023-03-06T23:55:22.966Z,2.70
2023-03-06T23:57:50.238Z,2.70
